Time;durP1;ratioP1;P1;durP2;ratioP2;P2;SDS_P1;SDS_P2;PMS_P1;PMS_P2;Temp;Humidity;BMP_temperature;BMP_pressure;BME280_temperature;BME280_humidity;BME280_pressure;Samples;Min_cycle;Max_cycle;Signal;HPM_P1;HPM_P2
2023/03/15 00:02:04;;;;;;;6.10;1.30;;;;;;;1.61;100.00;100822.09;5035155;28;20041;-82
2023/03/15 00:04:33;;;;;;;9.88;2.58;;;;;;;1.58;100.00;100827.19;5033003;28;20044;-81
2023/03/15 00:07:00;;;;;;;5.43;1.40;;;;;;;1.55;100.00;100834.06;5030441;28;20025;-81
2023/03/15 00:09:27;;;;;;;6.85;2.05;;;;;;;1.52;100.00;100853.81;5015228;28;20546;-82
2023/03/15 00:11:55;;;;;;;9.55;2.58;;;;;;;1.48;100.00;100846.75;4987828;28;20407;-79
2023/03/15 00:14:22;;;;;;;5.68;1.65;;;;;;;1.46;100.00;100854.47;5022577;28;20042;-80
2023/03/15 00:16:49;;;;;;;5.18;1.77;;;;;;;1.44;100.00;100858.72;5012530;28;20049;-82
2023/03/15 00:19:17;;;;;;;7.00;1.80;;;;;;;1.42;100.00;100856.84;4987169;28;20803;-81
2023/03/15 00:21:44;;;;;;;13.82;1.88;;;;;;;1.40;100.00;100863.69;5004577;28;20048;-81
2023/03/15 00:24:11;;;;;;;6.22;1.67;;;;;;;1.39;100.00;100861.94;4995707;28;20053;-81
2023/03/15 00:26:39;;;;;;;4.32;1.60;;;;;;;1.39;100.00;100875.81;5014996;28;20050;-82
2023/03/15 00:29:08;;;;;;;5.30;1.75;;;;;;;1.37;100.00;100869.66;4966233;28;20048;-81
2023/03/15 00:31:35;;;;;;;3.67;1.42;;;;;;;1.36;100.00;100870.47;5002933;28;20049;-81
2023/03/15 00:34:02;;;;;;;9.23;2.33;;;;;;;1.34;100.00;100869.53;5016308;28;20053;-81
2023/03/15 00:36:31;;;;;;;7.43;1.55;;;;;;;1.34;100.00;100874.72;4982350;28;20057;-81
2023/03/15 00:38:58;;;;;;;7.72;1.63;;;;;;;1.32;100.00;100891.94;5011044;28;20061;-81
2023/03/15 00:41:26;;;;;;;5.05;1.63;;;;;;;1.30;100.00;100893.59;4998029;28;20064;-81
2023/03/15 00:43:53;;;;;;;9.35;2.05;;;;;;;1.27;100.00;100896.09;4975788;28;20057;-81
2023/03/15 00:46:21;;;;;;;8.32;1.73;;;;;;;1.24;100.00;100903.75;5003294;28;20053;-82
2023/03/15 00:48:50;;;;;;;4.00;1.90;;;;;;;1.24;100.00;100915.00;5001354;28;20057;-83
2023/03/15 00:51:20;;;;;;;3.30;1.10;;;;;;;1.25;100.00;100918.47;4986882;28;20041;-81
2023/03/15 00:53:49;;;;;;;6.65;1.90;;;;;;;1.28;100.00;100921.22;5018085;28;20061;-82
2023/03/15 00:56:22;;;;;;;6.07;1.30;;;;;;;1.29;100.00;100923.88;5025303;28;20045;-81
2023/03/15 00:58:53;;;;;;;7.85;1.30;;;;;;;1.28;100.00;100929.00;4982141;28;20045;-82
2023/03/15 01:01:27;;;;;;;5.40;1.42;;;;;;;1.25;100.00;100931.44;4997769;28;20075;-81
2023/03/15 01:03:56;;;;;;;4.03;1.30;;;;;;;1.23;100.00;100944.41;5006650;28;20055;-79
2023/03/15 01:06:27;;;;;;;6.65;2.42;;;;;;;1.22;100.00;100944.31;4980853;28;20707;-79
2023/03/15 01:08:56;;;;;;;10.38;2.38;;;;;;;1.21;100.00;100948.63;5016491;28;20065;-80
2023/03/15 01:11:26;;;;;;;4.68;1.45;;;;;;;1.20;100.00;100959.81;5007196;28;20050;-79
2023/03/15 01:13:56;;;;;;;8.07;1.73;;;;;;;1.17;100.00;100963.19;5001037;28;20049;-80
2023/03/15 01:16:24;;;;;;;10.13;1.40;;;;;;;1.16;100.00;100960.53;5010940;28;20057;-79
2023/03/15 01:18:52;;;;;;;5.13;1.42;;;;;;;1.14;100.00;100970.84;4997784;28;20060;-80
2023/03/15 01:21:22;;;;;;;8.43;1.27;;;;;;;1.11;100.00;100973.28;4995666;28;20080;-79
2023/03/15 01:23:50;;;;;;;8.32;1.20;;;;;;;1.10;100.00;100979.31;5009209;28;20045;-82
2023/03/15 01:26:21;;;;;;;9.95;1.50;;;;;;;1.10;100.00;100981.03;5002362;28;20053;-81
2023/03/15 01:28:48;;;;;;;5.47;1.65;;;;;;;1.10;100.00;100978.44;4980350;28;20045;-81
2023/03/15 01:31:27;;;;;;;5.32;1.52;;;;;;;1.09;100.00;100981.84;5016253;28;20061;-81
2023/03/15 01:33:56;;;;;;;8.73;1.55;;;;;;;1.10;100.00;100991.41;5014246;28;20521;-81
2023/03/15 01:36:26;;;;;;;9.75;1.80;;;;;;;1.09;100.00;100993.09;5003116;28;20049;-80
2023/03/15 01:38:54;;;;;;;4.80;1.67;;;;;;;1.09;100.00;101000.88;4993268;28;20049;-80
2023/03/15 01:41:27;;;;;;;4.78;1.20;;;;;;;1.11;100.00;101001.84;5023097;28;20060;-81
2023/03/15 01:43:54;;;;;;;6.90;1.45;;;;;;;1.14;100.00;101006.28;4966033;28;20057;-81
2023/03/15 01:46:27;;;;;;;7.82;2.17;;;;;;;1.15;100.00;100997.66;4995437;28;20056;-82
2023/03/15 01:49:07;;;;;;;10.80;1.60;;;;;;;1.15;100.00;101014.16;5011552;28;20390;-81
2023/03/15 01:51:51;;;;;;;12.88;1.92;;;;;;;1.15;100.00;101008.97;5027690;28;20045;-80
2023/03/15 01:54:26;;;;;;;7.57;1.95;;;;;;;1.17;100.00;101011.59;4992584;28;20494;-79
2023/03/15 01:57:07;;;;;;;7.65;1.80;;;;;;;1.17;100.00;101019.38;5022569;28;20053;-80
2023/03/15 01:59:39;;;;;;;11.10;2.28;;;;;;;1.16;100.00;101028.88;4976080;28;20041;-79
2023/03/15 02:02:07;;;;;;;6.60;1.80;;;;;;;1.16;100.00;101041.88;5012662;28;20060;-78
2023/03/15 02:04:48;;;;;;;8.27;1.83;;;;;;;1.15;100.00;101047.91;5001917;28;20469;-80
2023/03/15 02:07:21;;;;;;;7.95;1.80;;;;;;;1.15;100.00;101039.19;5005443;28;20057;-81
2023/03/15 02:10:02;;;;;;;6.45;1.30;;;;;;;1.17;100.00;101054.03;5003154;28;20052;-80
2023/03/15 02:12:37;;;;;;;8.48;1.48;;;;;;;1.22;100.00;101055.94;5020402;28;20050;-81
2023/03/15 02:15:06;;;;;;;8.63;1.75;;;;;;;1.27;100.00;101059.66;4978620;28;20053;-80
2023/03/15 02:17:40;;;;;;;5.32;1.50;;;;;;;1.30;100.00;101042.47;5012887;28;20088;-82
2023/03/15 02:20:17;;;;;;;4.25;1.50;;;;;;;1.36;100.00;101052.22;5012282;28;20053;-81
2023/03/15 02:23:16;;;;;;;3.30;1.23;;;;;;;1.40;100.00;101051.56;5008987;28;20045;-81
2023/03/15 02:25:49;;;;;;;9.48;1.50;;;;;;;1.45;100.00;101059.56;5003622;28;20056;-82
2023/03/15 02:28:18;;;;;;;5.80;1.92;;;;;;;1.49;100.00;101056.25;5003859;28;20064;-82
2023/03/15 02:30:47;;;;;;;7.95;1.48;;;;;;;1.51;100.00;101060.72;4989106;28;20056;-80
2023/03/15 02:33:34;;;;;;;6.03;1.67;;;;;;;1.53;100.00;101065.94;5008196;28;20056;-80
2023/03/15 02:36:10;;;;;;;9.23;1.73;;;;;;;1.53;100.00;101069.47;4995307;28;20056;-81
2023/03/15 02:38:38;;;;;;;7.55;1.90;;;;;;;1.51;100.00;101084.09;5000782;28;20410;-79
2023/03/15 02:41:06;;;;;;;7.85;1.83;;;;;;;1.50;100.00;101084.91;5018833;28;20037;-82
2023/03/15 02:43:34;;;;;;;10.50;1.80;;;;;;;1.48;100.00;101078.75;5006855;28;20041;-79
2023/03/15 02:46:03;;;;;;;9.32;1.58;;;;;;;1.45;100.00;101089.00;4975031;28;20396;-80
2023/03/15 02:48:32;;;;;;;8.98;1.63;;;;;;;1.42;100.00;101085.38;5029160;28;20449;-80
2023/03/15 02:51:02;;;;;;;10.80;1.90;;;;;;;1.39;100.00;101096.53;5030261;28;20056;-79
2023/03/15 02:53:30;;;;;;;11.38;2.50;;;;;;;1.34;100.00;101108.41;5003888;28;20052;-80
2023/03/15 02:56:00;;;;;;;6.93;2.00;;;;;;;1.28;100.00;101119.41;5002681;28;20049;-80
2023/03/15 02:58:27;;;;;;;9.00;2.50;;;;;;;1.24;100.00;101121.81;5012103;28;20049;-81
2023/03/15 03:00:56;;;;;;;8.07;1.63;;;;;;;1.20;100.00;101122.50;4971224;28;20686;-80
2023/03/15 03:03:23;;;;;;;10.73;2.38;;;;;;;1.19;100.00;101131.09;4988357;28;20057;-80
2023/03/15 03:05:51;;;;;;;7.72;1.77;;;;;;;1.15;100.00;101124.88;5026804;28;20068;-80
2023/03/15 03:08:19;;;;;;;13.05;2.08;;;;;;;1.12;100.00;101130.81;5026214;28;20044;-79
2023/03/15 03:10:47;;;;;;;8.77;2.05;;;;;;;1.08;100.00;101139.28;5042593;28;20049;-80
2023/03/15 03:13:14;;;;;;;8.18;2.33;;;;;;;1.07;100.00;101145.28;5027064;28;20045;-81
2023/03/15 03:15:44;;;;;;;11.50;2.15;;;;;;;1.05;100.00;101140.84;4985172;28;20675;-80
2023/03/15 03:18:13;;;;;;;7.82;1.77;;;;;;;1.02;100.00;101154.56;5021179;28;20056;-80
2023/03/15 03:20:44;;;;;;;13.60;2.58;;;;;;;1.03;100.00;101155.47;5023490;28;20056;-80
2023/03/15 03:23:12;;;;;;;14.25;1.92;;;;;;;1.01;100.00;101157.97;5013970;28;20053;-81
2023/03/15 03:25:41;;;;;;;13.50;2.15;;;;;;;0.99;100.00;101164.81;5022276;28;20045;-81
2023/03/15 03:28:09;;;;;;;16.45;2.47;;;;;;;0.96;100.00;101162.06;5033967;28;20045;-80
2023/03/15 03:30:36;;;;;;;12.65;3.17;;;;;;;0.96;100.00;101169.84;5023821;28;20057;-80
2023/03/15 03:33:03;;;;;;;16.80;2.92;;;;;;;0.95;100.00;101170.66;4969742;28;20048;-81
2023/03/15 03:35:31;;;;;;;9.57;2.00;;;;;;;0.94;100.00;101168.88;5030716;28;20060;-80
2023/03/15 03:37:59;;;;;;;11.95;2.47;;;;;;;0.93;100.00;101182.69;5015124;28;20045;-80
2023/03/15 03:40:32;;;;;;;10.85;2.53;;;;;;;0.90;100.00;101183.41;5024802;28;20495;-80
2023/03/15 03:43:00;;;;;;;11.88;2.17;;;;;;;0.89;100.00;101197.22;5019625;28;20049;-80
2023/03/15 03:45:28;;;;;;;8.90;2.78;;;;;;;0.91;100.00;101231.03;5048223;28;20499;-80
2023/03/15 03:47:58;;;;;;;8.70;2.13;;;;;;;0.95;100.00;101231.25;4992993;28;20064;-80
2023/03/15 03:50:26;;;;;;;6.70;1.88;;;;;;;1.04;100.00;101233.41;5024000;28;20041;-80
2023/03/15 03:52:53;;;;;;;8.27;1.90;;;;;;;1.11;100.00;101240.63;5033294;28;20053;-80
2023/03/15 03:55:25;;;;;;;9.02;2.50;;;;;;;1.17;100.00;101256.53;5018422;28;20052;-79
2023/03/15 03:57:53;;;;;;;10.23;2.80;;;;;;;1.22;100.00;101250.66;5033698;28;20049;-80
2023/03/15 04:00:40;;;;;;;8.77;1.42;;;;;;;1.24;100.00;101246.44;5025810;28;20436;-78
2023/03/15 04:03:09;;;;;;;10.05;2.42;;;;;;;1.25;100.00;101266.34;5011147;28;20052;-79
2023/03/15 04:05:40;;;;;;;7.65;1.60;;;;;;;1.25;100.00;101261.16;5008038;28;20897;-80
2023/03/15 04:08:08;;;;;;;5.88;1.67;;;;;;;1.24;100.00;101273.28;5032132;28;20056;-80
2023/03/15 04:10:38;;;;;;;7.95;1.80;;;;;;;1.22;100.00;101279.22;5036764;28;20061;-80
2023/03/15 04:13:06;;;;;;;12.40;1.67;;;;;;;1.19;100.00;101276.47;4999539;28;20057;-79
2023/03/15 04:15:34;;;;;;;6.55;1.73;;;;;;;1.15;100.00;101298.78;5011095;28;20044;-79
2023/03/15 04:18:04;;;;;;;11.05;2.08;;;;;;;1.12;100.00;101294.34;5023314;28;20056;-80
2023/03/15 04:20:38;;;;;;;5.97;1.60;;;;;;;1.13;100.00;101298.69;4948682;28;20073;-79
2023/03/15 04:23:06;;;;;;;5.15;2.08;;;;;;;1.14;100.00;101292.72;5020233;28;20518;-81
2023/03/15 04:25:40;;;;;;;8.52;1.60;;;;;;;1.15;100.00;101302.28;5005054;28;20061;-81
2023/03/15 04:28:17;;;;;;;7.00;1.77;;;;;;;1.16;100.00;101298.88;5015181;28;20399;-81
2023/03/15 04:30:57;;;;;;;4.03;1.50;;;;;;;1.19;100.00;101302.41;5000862;28;20056;-81
2023/03/15 04:33:53;;;;;;;6.35;1.90;;;;;;;1.19;100.00;101294.63;4931063;28;20053;-80
2023/03/15 04:36:45;;;;;;;8.32;2.03;;;;;;;1.22;100.00;101294.78;5012511;28;20045;-79
2023/03/15 04:39:26;;;;;;;10.77;2.45;;;;;;;1.23;100.00;101291.38;5014890;28;20053;-78
2023/03/15 04:42:12;;;;;;;8.60;2.47;;;;;;;1.24;100.00;101295.75;5024220;28;20052;-83
2023/03/15 04:44:52;;;;;;;7.75;1.67;;;;;;;1.24;100.00;101295.75;5033513;28;20045;-81
2023/03/15 04:47:36;;;;;;;7.22;1.42;;;;;;;1.24;100.00;101294.03;5024564;28;20061;-81
2023/03/15 04:50:30;;;;;;;7.15;1.58;;;;;;;1.20;100.00;101291.22;4957041;28;20049;-81
2023/03/15 04:53:17;;;;;;;6.85;1.20;;;;;;;1.15;100.00;101299.69;4997618;28;20495;-81
2023/03/15 04:55:51;;;;;;;10.65;1.42;;;;;;;1.11;100.00;101297.75;5015437;28;20041;-80
2023/03/15 04:58:34;;;;;;;6.70;1.23;;;;;;;1.06;100.00;101304.44;5003957;28;20045;-80
2023/03/15 05:01:10;;;;;;;4.22;1.15;;;;;;;1.02;100.00;101301.59;5004083;28;20059;-80
2023/03/15 05:03:50;;;;;;;3.92;1.13;;;;;;;0.97;100.00;101306.56;4983811;28;20048;-80
2023/03/15 05:06:44;;;;;;;3.55;1.00;;;;;;;0.91;100.00;101306.28;4973560;28;20511;-80
2023/03/15 05:09:37;;;;;;;3.13;0.98;;;;;;;0.87;100.00;101319.88;5029620;28;20056;-80
2023/03/15 05:12:35;;;;;;;4.45;1.35;;;;;;;0.81;100.00;101317.00;5030549;28;20698;-81
2023/03/15 05:15:11;;;;;;;5.07;0.82;;;;;;;0.78;100.00;101325.53;5022263;28;20057;-79
2023/03/15 05:17:53;;;;;;;3.45;1.30;;;;;;;0.74;100.00;101326.19;5013631;28;20050;-80
2023/03/15 05:20:44;;;;;;;2.50;0.93;;;;;;;0.68;100.00;101331.97;4978487;28;20041;-80
2023/03/15 05:23:38;;;;;;;3.75;0.98;;;;;;;0.63;100.00;101323.03;5019337;28;20525;-80
2023/03/15 05:26:05;;;;;;;2.38;1.02;;;;;;;0.61;100.00;101335.03;5006129;28;20057;-80
2023/03/15 05:28:58;;;;;;;1.92;1.10;;;;;;;0.56;100.00;101334.78;5003021;28;20046;-80
2023/03/15 05:31:51;;;;;;;3.22;1.15;;;;;;;0.52;100.00;101337.16;4993569;28;20053;-80
2023/03/15 05:34:42;;;;;;;5.32;1.20;;;;;;;0.50;100.00;101337.06;5004953;28;20419;-80
2023/03/15 05:37:29;;;;;;;3.65;1.10;;;;;;;0.50;100.00;101346.56;4956470;28;20050;-81
2023/03/15 05:40:20;;;;;;;3.15;1.45;;;;;;;0.49;100.00;101358.66;5022590;28;20065;-79
2023/03/15 05:42:59;;;;;;;11.50;2.10;;;;;;;0.46;100.00;101348.09;4996971;28;20054;-80
2023/03/15 05:45:50;;;;;;;5.75;1.58;;;;;;;0.45;100.00;101358.41;5028359;28;20041;-80
2023/03/15 05:48:31;;;;;;;4.63;1.50;;;;;;;0.42;100.00;101368.59;5017577;28;20053;-80
2023/03/15 05:51:25;;;;;;;5.80;1.33;;;;;;;0.38;100.00;101381.41;4970869;28;20066;-80
2023/03/15 05:54:07;;;;;;;9.55;2.20;;;;;;;0.35;100.00;101380.34;5014796;28;20049;-79
2023/03/15 05:56:55;;;;;;;8.88;2.38;;;;;;;0.32;100.00;101386.28;4999036;28;20050;-81
2023/03/15 05:59:50;;;;;;;6.95;2.05;;;;;;;0.32;100.00;101395.75;5030761;28;20029;-81
2023/03/15 06:02:38;;;;;;;8.90;1.73;;;;;;;0.30;100.00;101410.31;5034561;28;20525;-80
2023/03/15 06:05:26;;;;;;;4.72;1.65;;;;;;;0.27;100.00;101405.88;4999126;28;20053;-81
2023/03/15 06:07:55;;;;;;;10.35;1.73;;;;;;;0.28;100.00;101410.22;4998195;28;20056;-81
2023/03/15 06:10:23;;;;;;;9.93;1.67;;;;;;;0.30;100.00;101406.06;4986798;28;20050;-81
2023/03/15 06:12:52;;;;;;;7.07;1.60;;;;;;;0.37;100.00;101418.50;5010817;28;20042;-81
2023/03/15 06:15:20;;;;;;;7.03;2.00;;;;;;;0.43;100.00;101422.25;4991971;28;20053;-81
2023/03/15 06:17:48;;;;;;;8.65;2.67;;;;;;;0.47;100.00;101424.19;5009313;28;20053;-78
2023/03/15 06:20:17;;;;;;;9.43;2.10;;;;;;;0.46;100.00;101438.88;4991526;28;20068;-80
2023/03/15 06:22:44;;;;;;;15.02;1.80;;;;;;;0.41;100.00;101435.13;5008381;28;20046;-79
2023/03/15 06:25:26;;;;;;;5.40;1.70;;;;;;;0.37;100.00;101439.25;4994162;28;20068;-80
2023/03/15 06:27:53;;;;;;;9.48;1.73;;;;;;;0.30;100.00;101431.97;5003094;28;20041;-81
2023/03/15 06:30:22;;;;;;;6.80;2.03;;;;;;;0.25;100.00;101441.19;4985590;28;20049;-79
2023/03/15 06:32:54;;;;;;;5.65;1.35;;;;;;;0.21;100.00;101441.84;5003902;28;20056;-80
2023/03/15 06:35:22;;;;;;;5.60;1.20;;;;;;;0.17;100.00;101442.47;5024017;28;20049;-82
2023/03/15 06:37:51;;;;;;;6.28;1.50;;;;;;;0.16;100.00;101443.28;4984115;28;20056;-81
2023/03/15 06:40:19;;;;;;;12.77;1.70;;;;;;;0.15;100.00;101451.84;4974908;28;20053;-81
2023/03/15 06:42:48;;;;;;;5.80;1.58;;;;;;;0.19;100.00;101456.44;4973770;28;20414;-81
2023/03/15 06:45:18;;;;;;;9.80;1.90;;;;;;;0.27;100.00;101457.72;5011391;28;20052;-81
2023/03/15 06:47:46;;;;;;;5.65;1.65;;;;;;;0.36;100.00;101457.34;5004668;28;20030;-81
2023/03/15 06:50:15;;;;;;;12.82;1.70;;;;;;;0.48;100.00;101457.09;5006105;28;20065;-81
2023/03/15 06:52:42;;;;;;;7.95;1.60;;;;;;;0.52;100.00;101456.47;4996521;28;20049;-82
2023/03/15 06:55:11;;;;;;;3.85;1.67;;;;;;;0.52;100.00;101453.88;4956850;28;20068;-82
2023/03/15 06:57:40;;;;;;;4.95;1.50;;;;;;;0.51;100.00;101454.66;5042557;28;20049;-82
2023/03/15 07:00:11;;;;;;;4.35;1.20;;;;;;;0.49;100.00;101461.47;4997926;28;20059;-82
2023/03/15 07:02:39;;;;;;;7.65;1.65;;;;;;;0.46;100.00;101463.91;5016982;28;20045;-82
2023/03/15 07:05:08;;;;;;;6.95;1.63;;;;;;;0.55;100.00;101480.84;5018310;28;20049;-81
2023/03/15 07:07:35;;;;;;;7.13;2.22;;;;;;;0.91;100.00;101482.75;5014907;28;20057;-80
2023/03/15 07:10:03;;;;;;;7.07;1.67;;;;;;;1.33;100.00;101475.38;5011351;28;20053;-81
2023/03/15 07:12:30;;;;;;;13.15;2.00;;;;;;;1.79;100.00;101477.66;4963513;28;20592;-81
2023/03/15 07:14:58;;;;;;;8.95;1.85;;;;;;;2.19;100.00;101481.28;5002466;28;20064;-82
2023/03/15 07:17:25;;;;;;;4.25;1.83;;;;;;;2.63;100.00;101466.84;5012677;28;20688;-82
2023/03/15 07:19:54;;;;;;;8.32;1.52;;;;;;;2.76;100.00;101469.19;4996007;28;20045;-79
2023/03/15 07:22:23;;;;;;;8.05;2.13;;;;;;;2.85;100.00;101477.38;5008797;28;20050;-83
2023/03/15 07:24:51;;;;;;;4.97;1.42;;;;;;;2.98;100.00;101478.81;5042173;28;20052;-80
2023/03/15 07:27:18;;;;;;;6.13;1.65;;;;;;;3.17;100.00;101482.22;4973694;28;20052;-80
2023/03/15 07:29:46;;;;;;;6.68;1.67;;;;;;;3.25;100.00;101491.25;5032341;28;20049;-81
2023/03/15 07:32:15;;;;;;;10.13;1.92;;;;;;;3.47;100.00;101491.34;5007942;28;20038;-80
2023/03/15 07:34:44;;;;;;;9.35;1.88;;;;;;;3.66;100.00;101498.22;5013560;28;20049;-81
2023/03/15 07:37:11;;;;;;;6.57;1.58;;;;;;;3.72;100.00;101508.00;5038011;28;20516;-80
2023/03/15 07:39:40;;;;;;;11.57;1.75;;;;;;;3.81;100.00;101497.97;5002242;28;20048;-80
2023/03/15 07:42:07;;;;;;;7.68;1.77;;;;;;;4.00;100.00;101502.22;4972523;28;20049;-82
2023/03/15 07:44:42;;;;;;;6.93;1.60;;;;;;;4.21;100.00;101507.41;5020373;28;20072;-81
2023/03/15 07:47:09;;;;;;;8.23;2.28;;;;;;;4.41;100.00;101516.03;5031396;28;20064;-79
2023/03/15 07:49:37;;;;;;;14.15;2.78;;;;;;;4.47;100.00;101515.38;4988465;28;20038;-79
2023/03/15 07:52:04;;;;;;;7.13;1.95;;;;;;;4.58;100.00;101516.66;5008961;28;20450;-79
2023/03/15 07:54:33;;;;;;;8.75;1.98;;;;;;;4.75;100.00;101534.72;4981500;28;20541;-80
2023/03/15 07:57:00;;;;;;;5.03;2.05;;;;;;;4.84;100.00;101532.44;4983903;28;20045;-80
2023/03/15 07:59:28;;;;;;;7.28;1.70;;;;;;;4.89;100.00;101541.31;5027785;28;20422;-82
2023/03/15 08:01:55;;;;;;;8.98;2.08;;;;;;;5.00;100.00;101537.38;5014237;28;20049;-79
2023/03/15 08:04:24;;;;;;;15.45;2.10;;;;;;;5.13;100.00;101541.34;4987696;28;20057;-82
2023/03/15 08:06:52;;;;;;;10.38;2.33;;;;;;;5.27;100.00;101532.28;5018797;28;20524;-80
2023/03/15 08:09:19;;;;;;;6.75;1.80;;;;;;;5.52;100.00;101532.25;5023720;28;20128;-79
2023/03/15 08:11:46;;;;;;;17.55;2.20;;;;;;;5.69;100.00;101538.97;5049060;28;20043;-80
2023/03/15 08:14:14;;;;;;;12.07;2.88;;;;;;;5.86;100.00;101555.22;4989040;28;20056;-79
2023/03/15 08:16:42;;;;;;;7.53;2.08;;;;;;;6.04;100.00;101549.75;5014987;28;20052;-80
2023/03/15 08:19:09;;;;;;;7.47;1.88;;;;;;;6.10;100.00;101557.78;5047825;28;20048;-80
2023/03/15 08:21:36;;;;;;;11.98;2.20;;;;;;;6.18;100.00;101551.09;5033519;28;20064;-79
2023/03/15 08:24:04;;;;;;;13.75;2.20;;;;;;;6.34;100.00;101547.22;5033249;28;20060;-81
2023/03/15 08:26:31;;;;;;;7.18;1.50;;;;;;;6.43;100.00;101552.75;5030891;28;20041;-79
2023/03/15 08:28:59;;;;;;;5.40;1.85;;;;;;;6.58;100.00;101547.09;4976198;28;20418;-79
2023/03/15 08:31:26;;;;;;;11.98;2.15;;;;;;;6.51;100.00;101555.63;5030637;28;20047;-79
2023/03/15 08:33:54;;;;;;;21.70;3.13;;;;;;;6.61;100.00;101562.00;5032062;28;20041;-79
2023/03/15 08:36:21;;;;;;;8.20;1.80;;;;;;;6.72;100.00;101564.97;5005297;28;20045;-79
2023/03/15 08:38:48;;;;;;;12.82;2.67;;;;;;;6.79;100.00;101572.19;5031413;28;20061;-79
2023/03/15 08:41:16;;;;;;;10.30;1.73;;;;;;;6.81;100.00;101562.63;5029073;28;20045;-79
2023/03/15 08:43:43;;;;;;;16.42;2.85;;;;;;;6.84;100.00;101567.94;4989917;28;20049;-79
2023/03/15 08:46:11;;;;;;;10.70;2.03;;;;;;;6.78;100.00;101589.59;5016573;28;20078;-79
2023/03/15 08:48:39;;;;;;;6.85;1.63;;;;;;;6.70;100.00;101587.63;5021237;28;20059;-79
2023/03/15 08:51:07;;;;;;;11.43;2.25;;;;;;;6.53;100.00;101593.19;5019663;28;20057;-80
2023/03/15 08:53:36;;;;;;;10.43;2.25;;;;;;;6.39;100.00;101599.72;5013779;28;20053;-79
2023/03/15 08:56:04;;;;;;;7.80;1.75;;;;;;;6.43;100.00;101604.25;5048695;28;20048;-79
2023/03/15 08:58:31;;;;;;;11.45;3.03;;;;;;;6.56;100.00;101595.03;4961855;28;20418;-79
2023/03/15 09:00:59;;;;;;;11.00;1.98;;;;;;;6.56;100.00;101598.56;5045249;28;20048;-79
2023/03/15 09:03:26;;;;;;;10.45;1.70;;;;;;;6.54;100.00;101610.72;5021582;28;20053;-78
2023/03/15 09:05:58;;;;;;;7.40;2.00;;;;;;;6.54;100.00;101608.09;5006731;28;20045;-79
2023/03/15 09:08:26;;;;;;;8.38;1.85;;;;;;;6.60;100.00;101608.28;5024559;28;20068;-79
2023/03/15 09:10:55;;;;;;;5.10;1.73;;;;;;;6.62;100.00;101610.94;5010839;28;20057;-79
2023/03/15 09:13:23;;;;;;;6.15;2.03;;;;;;;6.67;100.00;101614.56;4981105;28;20049;-80
2023/03/15 09:15:52;;;;;;;5.65;1.50;;;;;;;6.69;100.00;101617.25;5027416;28;20064;-78
2023/03/15 09:18:20;;;;;;;7.70;1.70;;;;;;;6.65;100.00;101621.50;5011184;28;20136;-79
2023/03/15 09:20:50;;;;;;;10.25;2.10;;;;;;;6.71;100.00;101618.19;5011046;28;20053;-79
2023/03/15 09:23:18;;;;;;;8.60;1.73;;;;;;;6.69;100.00;101625.09;4999778;28;20049;-79
2023/03/15 09:25:45;;;;;;;4.80;1.50;;;;;;;6.73;100.00;101630.50;5008075;28;20053;-79
2023/03/15 09:28:13;;;;;;;7.13;2.00;;;;;;;6.75;100.00;101620.97;5008308;28;20045;-79
2023/03/15 09:30:41;;;;;;;10.25;2.30;;;;;;;6.67;100.00;101624.19;4969854;28;20050;-79
2023/03/15 09:33:13;;;;;;;8.02;1.70;;;;;;;6.58;100.00;101619.56;5003298;28;20057;-79
2023/03/15 09:35:41;;;;;;;5.80;1.58;;;;;;;6.57;100.00;101623.88;4978069;28;20057;-78
2023/03/15 09:38:09;;;;;;;13.90;2.63;;;;;;;6.56;100.00;101623.81;5016114;28;20049;-79
2023/03/15 09:40:44;;;;;;;5.03;1.33;;;;;;;6.49;100.00;101640.22;5007909;28;20783;-79
2023/03/15 09:43:20;;;;;;;9.55;2.53;;;;;;;6.45;100.00;101639.22;5007304;28;20475;-79
2023/03/15 09:46:06;;;;;;;9.93;1.52;;;;;;;6.43;100.00;101630.41;4993240;28;20418;-79
2023/03/15 09:48:36;;;;;;;7.57;1.63;;;;;;;6.43;100.00;101635.66;5021853;28;20064;-78
2023/03/15 09:51:07;;;;;;;9.43;2.38;;;;;;;6.44;100.00;101642.66;5029504;28;20049;-79
2023/03/15 09:54:06;;;;;;;10.02;1.52;;;;;;;6.44;100.00;101654.00;4980108;28;20053;-79
2023/03/15 09:56:40;;;;;;;7.97;1.70;;;;;;;6.45;100.00;101665.41;5017445;28;20041;-80
2023/03/15 09:59:09;;;;;;;10.63;2.03;;;;;;;6.47;100.00;101653.25;5014745;28;20073;-80
2023/03/15 10:01:41;;;;;;;6.38;1.67;;;;;;;6.50;100.00;101657.69;4982826;28;20404;-79
2023/03/15 10:04:15;;;;;;;9.23;1.38;;;;;;;6.50;100.00;101661.19;5013261;28;20064;-77
2023/03/15 10:06:50;;;;;;;6.68;2.22;;;;;;;6.53;100.00;101663.91;5002283;28;20052;-79
2023/03/15 10:09:22;;;;;;;9.45;2.08;;;;;;;6.54;100.00;101673.56;4987037;28;20053;-80
2023/03/15 10:12:09;;;;;;;9.70;1.83;;;;;;;6.59;100.00;101665.84;4993876;28;20041;-79
2023/03/15 10:14:38;;;;;;;7.57;1.77;;;;;;;6.61;100.00;101678.13;4961419;28;20053;-79
2023/03/15 10:17:11;;;;;;;5.68;1.50;;;;;;;6.69;100.00;101674.88;5027653;28;20045;-79
2023/03/15 10:19:49;;;;;;;4.75;1.38;;;;;;;6.61;100.00;101675.50;5009178;28;20064;-79
2023/03/15 10:22:28;;;;;;;7.25;1.60;;;;;;;6.62;100.00;101689.53;5015106;28;20053;-79
2023/03/15 10:25:00;;;;;;;7.18;1.45;;;;;;;6.62;100.00;101686.91;4996653;28;20406;-80
2023/03/15 10:27:38;;;;;;;4.82;1.83;;;;;;;6.57;100.00;101686.72;4987457;28;20053;-79
2023/03/15 10:30:16;;;;;;;9.93;1.80;;;;;;;6.56;100.00;101684.06;5016299;28;20065;-80
2023/03/15 10:32:48;;;;;;;8.43;1.52;;;;;;;6.59;100.00;101676.31;5017181;28;20056;-81
2023/03/15 10:35:18;;;;;;;7.05;1.80;;;;;;;6.68;100.00;101687.09;5012763;28;20060;-81
2023/03/15 10:37:46;;;;;;;13.75;2.78;;;;;;;6.77;100.00;101694.38;5016660;28;20049;-81
2023/03/15 10:40:38;;;;;;;7.72;1.80;;;;;;;6.87;97.72;101691.19;5000918;28;20036;-80
2023/03/15 10:43:28;;;;;;;6.82;1.75;;;;;;;6.76;96.03;101706.56;5021263;28;20617;-80
2023/03/15 10:46:20;;;;;;;10.90;2.00;;;;;;;6.61;100.00;101708.69;5030295;28;20045;-81
2023/03/15 10:48:59;;;;;;;6.85;1.70;;;;;;;6.50;100.00;101710.94;5000496;28;20068;-79
2023/03/15 10:51:30;;;;;;;6.82;1.80;;;;;;;6.55;100.00;101701.50;5006852;28;20045;-81
2023/03/15 10:54:05;;;;;;;5.75;1.27;;;;;;;6.67;100.00;101713.22;4998324;28;20065;-81
2023/03/15 10:56:42;;;;;;;9.50;1.45;;;;;;;6.78;100.00;101722.31;5025389;28;20045;-80
2023/03/15 10:59:25;;;;;;;9.20;2.17;;;;;;;6.77;98.50;101720.56;5021481;28;20049;-80
2023/03/15 11:02:14;;;;;;;5.28;1.70;;;;;;;6.85;98.17;101726.94;5026898;28;20056;-80
2023/03/15 11:04:43;;;;;;;10.52;2.28;;;;;;;6.95;98.07;101726.38;4997796;28;20042;-81
2023/03/15 11:07:12;;;;;;;9.13;1.90;;;;;;;6.90;98.79;101730.59;5011786;28;20049;-79
2023/03/15 11:09:40;;;;;;;5.97;1.52;;;;;;;6.75;98.01;101731.00;5003736;28;20418;-80
2023/03/15 11:12:30;;;;;;;5.82;1.67;;;;;;;6.59;95.52;101729.56;5012279;28;20064;-80
2023/03/15 11:15:13;;;;;;;7.72;1.63;;;;;;;6.66;98.59;101727.19;5001278;28;20049;-81
2023/03/15 11:17:43;;;;;;;6.60;1.45;;;;;;;6.81;100.00;101727.69;5005400;28;20487;-80
2023/03/15 11:20:32;;;;;;;6.22;2.15;;;;;;;6.98;95.93;101729.09;4991693;28;20414;-80
2023/03/15 11:23:14;;;;;;;5.70;1.50;;;;;;;7.00;97.66;101740.53;5010440;28;20049;-80
2023/03/15 11:25:42;;;;;;;4.63;1.80;;;;;;;6.90;96.12;101748.94;5023260;28;20050;-80
2023/03/15 11:28:18;;;;;;;4.93;1.27;;;;;;;6.81;95.09;101748.63;4998643;28;20053;-80
2023/03/15 11:30:46;;;;;;;8.52;1.42;;;;;;;6.81;94.88;101741.66;5015036;28;20379;-82
2023/03/15 11:33:44;;;;;;;8.25;1.65;;;;;;;6.92;92.27;101747.25;5005617;28;20060;-81
2023/03/15 11:36:17;;;;;;;4.82;1.55;;;;;;;7.08;87.77;101740.78;4979250;28;20062;-79
2023/03/15 11:38:46;;;;;;;8.05;1.77;;;;;;;7.17;90.90;101748.03;4996967;28;20046;-80
2023/03/15 11:41:28;;;;;;;8.15;1.63;;;;;;;7.17;89.15;101737.56;4999182;28;20054;-80
2023/03/15 11:44:32;;;;;;;8.07;2.35;;;;;;;7.23;85.38;101735.13;5022684;28;20056;-80
2023/03/15 11:47:30;;;;;;;4.90;2.03;;;;;;;7.20;86.01;101754.28;4997649;28;20414;-79
2023/03/15 11:49:58;;;;;;;6.78;1.60;;;;;;;7.08;90.59;101745.13;4985560;28;20045;-81
2023/03/15 11:52:28;;;;;;;8.23;2.15;;;;;;;7.05;91.25;101758.13;5038173;28;20040;-81